createdAt,value
2023-03-27T00:01:18.111Z,3.90
2023-03-27T00:03:49.352Z,3.07
2023-03-27T00:06:19.209Z,2.27
2023-03-27T00:08:50.536Z,2.10
2023-03-27T00:11:18.883Z,2.83
2023-03-27T00:13:50.379Z,2.60
2023-03-27T00:16:19.193Z,2.20
2023-03-27T00:18:47.043Z,2.00
2023-03-27T00:21:15.275Z,2.80
2023-03-27T00:23:43.144Z,1.90
2023-03-27T00:26:12.681Z,2.00
2023-03-27T00:28:40.624Z,2.20
2023-03-27T00:31:12.423Z,2.53
2023-03-27T00:33:40.859Z,2.10
2023-03-27T00:36:09.648Z,2.00
2023-03-27T00:38:39.399Z,2.60
2023-03-27T00:41:08.332Z,3.53
2023-03-27T00:43:42.559Z,3.03
2023-03-27T00:46:27.598Z,2.17
2023-03-27T00:48:57.184Z,2.33
2023-03-27T00:51:27.492Z,2.30
2023-03-27T00:53:57.162Z,6.07
2023-03-27T00:56:25.517Z,2.53
2023-03-27T00:58:57.593Z,3.50
2023-03-27T01:01:30.749Z,2.87
2023-03-27T01:04:05.144Z,3.03
2023-03-27T01:06:33.891Z,2.13
2023-03-27T01:09:01.854Z,2.20
2023-03-27T01:11:43.445Z,2.10
2023-03-27T01:14:25.288Z,4.90
2023-03-27T01:17:06.491Z,2.50
2023-03-27T01:19:59.778Z,1.93
2023-03-27T01:23:13.230Z,1.90
2023-03-27T01:26:12.117Z,2.00
2023-03-27T01:28:54.659Z,4.37
2023-03-27T01:31:35.779Z,1.90
2023-03-27T01:34:29.999Z,6.03
2023-03-27T01:37:14.660Z,5.90
2023-03-27T01:39:54.716Z,1.90
2023-03-27T01:42:26.803Z,1.90
2023-03-27T01:45:02.256Z,2.00
2023-03-27T01:47:38.746Z,2.10
2023-03-27T01:50:13.663Z,2.10
2023-03-27T01:52:45.137Z,2.10
2023-03-27T01:55:20.081Z,2.63
2023-03-27T01:57:53.927Z,1.90
2023-03-27T02:00:26.849Z,2.00
2023-03-27T02:03:18.984Z,1.90
2023-03-27T02:05:52.697Z,2.40
2023-03-27T02:08:26.201Z,2.10
2023-03-27T02:10:59.211Z,2.10
2023-03-27T02:13:32.709Z,1.90
2023-03-27T02:16:02.207Z,1.90
2023-03-27T02:18:35.326Z,2.20
2023-03-27T02:21:03.456Z,2.00
2023-03-27T02:23:31.712Z,2.17
2023-03-27T02:26:01.642Z,2.97
2023-03-27T02:28:40.073Z,2.30
2023-03-27T02:31:32.615Z,2.03
2023-03-27T02:34:20.118Z,1.90
2023-03-27T02:36:55.897Z,3.40
2023-03-27T02:39:30.423Z,2.00
2023-03-27T02:42:04.085Z,2.10
2023-03-27T02:44:47.557Z,2.10
2023-03-27T02:47:20.406Z,2.30
2023-03-27T02:49:52.424Z,2.87
2023-03-27T02:52:24.879Z,1.90
2023-03-27T02:54:56.704Z,2.60
2023-03-27T02:57:31.596Z,6.03
2023-03-27T03:00:12.565Z,2.10
2023-03-27T03:02:42.248Z,2.77
2023-03-27T03:05:14.048Z,1.90
2023-03-27T03:07:41.878Z,2.77
2023-03-27T03:10:12.362Z,2.00
2023-03-27T03:12:41.634Z,1.90
2023-03-27T03:15:10.557Z,2.00
2023-03-27T03:17:38.715Z,2.20
2023-03-27T03:20:09.738Z,2.30
2023-03-27T03:22:39.831Z,2.00
2023-03-27T03:25:08.625Z,2.30
2023-03-27T03:27:36.431Z,2.10
2023-03-27T03:30:09.390Z,2.20
2023-03-27T03:32:37.182Z,2.07
2023-03-27T03:35:05.463Z,2.00
2023-03-27T03:37:38.549Z,2.00
2023-03-27T03:40:11.605Z,2.63
2023-03-27T03:42:45.308Z,2.27
2023-03-27T03:45:14.730Z,2.10
2023-03-27T03:47:43.131Z,2.13
2023-03-27T03:50:11.907Z,2.07
2023-03-27T03:52:40.080Z,2.20
2023-03-27T03:55:10.350Z,2.40
2023-03-27T03:57:38.302Z,2.50
2023-03-27T04:00:08.494Z,2.30
2023-03-27T04:02:38.617Z,2.10
2023-03-27T04:05:09.329Z,2.10
2023-03-27T04:07:39.901Z,2.30
2023-03-27T04:10:09.659Z,2.43
2023-03-27T04:12:37.438Z,2.60
2023-03-27T04:15:05.985Z,2.10
2023-03-27T04:17:34.127Z,2.00
2023-03-27T04:20:05.650Z,2.10
2023-03-27T04:22:37.832Z,2.17
2023-03-27T04:25:07.017Z,2.50
2023-03-27T04:27:35.631Z,2.20
2023-03-27T04:30:03.434Z,2.57
2023-03-27T04:32:31.356Z,2.53
2023-03-27T04:34:59.268Z,3.20
2023-03-27T04:37:28.752Z,3.50
2023-03-27T04:39:56.525Z,2.33
2023-03-27T04:42:24.325Z,2.00
2023-03-27T04:44:53.126Z,2.83
2023-03-27T04:47:21.378Z,2.60
2023-03-27T04:49:50.988Z,2.27
2023-03-27T04:52:19.695Z,2.63
2023-03-27T04:54:48.756Z,2.63
2023-03-27T04:57:18.981Z,2.20
2023-03-27T04:59:47.782Z,1.93
2023-03-27T05:02:16.085Z,2.00
2023-03-27T05:04:43.847Z,2.10
2023-03-27T05:07:12.378Z,2.10
2023-03-27T05:09:40.371Z,2.20
2023-03-27T05:12:10.646Z,4.53
2023-03-27T05:14:38.464Z,3.57
2023-03-27T05:17:06.767Z,2.10
2023-03-27T05:19:35.037Z,2.90
2023-03-27T05:22:02.962Z,1.90
2023-03-27T05:24:31.040Z,2.40
2023-03-27T05:26:58.964Z,2.10
2023-03-27T05:29:28.120Z,2.33
2023-03-27T05:31:55.866Z,2.30
2023-03-27T05:34:23.783Z,2.20
2023-03-27T05:36:51.583Z,2.00
2023-03-27T05:39:19.721Z,2.20
2023-03-27T05:41:47.471Z,2.10
2023-03-27T05:44:15.288Z,2.10
2023-03-27T05:46:44.391Z,2.00
2023-03-27T05:49:12.218Z,2.00
2023-03-27T05:51:40.212Z,2.10
2023-03-27T05:54:15.302Z,1.90
2023-03-27T05:56:43.241Z,2.00
2023-03-27T05:59:11.668Z,2.10
2023-03-27T06:01:39.796Z,2.03
2023-03-27T06:04:09.484Z,2.13
2023-03-27T06:06:37.378Z,2.20
2023-03-27T06:09:05.776Z,2.90
2023-03-27T06:11:33.675Z,3.03
2023-03-27T06:14:01.481Z,2.30
2023-03-27T06:16:29.393Z,2.10
2023-03-27T06:18:57.432Z,2.57
2023-03-27T06:21:26.746Z,3.60
2023-03-27T06:23:56.203Z,2.23
2023-03-27T06:26:24.001Z,2.37
2023-03-27T06:28:51.752Z,2.30
2023-03-27T06:31:19.986Z,2.27
2023-03-27T06:33:48.912Z,2.60
2023-03-27T06:36:16.921Z,2.10
2023-03-27T06:38:46.047Z,2.87
2023-03-27T06:41:13.876Z,2.37
2023-03-27T06:43:41.760Z,2.80
2023-03-27T06:46:09.713Z,2.27
2023-03-27T06:48:37.881Z,2.20
2023-03-27T06:51:06.468Z,2.40
2023-03-27T06:53:36.693Z,2.53
2023-03-27T06:56:09.186Z,2.40
2023-03-27T06:58:37.270Z,2.10
2023-03-27T07:01:05.260Z,2.30
2023-03-27T07:03:33.124Z,2.27
2023-03-27T07:06:01.936Z,2.20
2023-03-27T07:08:29.841Z,4.80
2023-03-27T07:11:10.662Z,2.43
2023-03-27T07:13:42.315Z,2.00
2023-03-27T07:16:12.276Z,2.70
2023-03-27T07:18:41.728Z,2.10
2023-03-27T07:21:10.454Z,4.53
2023-03-27T07:23:38.169Z,3.10
2023-03-27T07:26:06.675Z,2.10
2023-03-27T07:28:38.189Z,2.27
2023-03-27T07:31:20.555Z,2.07
2023-03-27T07:33:58.595Z,2.30
2023-03-27T07:36:26.515Z,2.30
2023-03-27T07:38:54.297Z,2.00
2023-03-27T07:41:22.702Z,2.20
2023-03-27T07:43:50.514Z,2.70
2023-03-27T07:46:19.733Z,2.43
2023-03-27T07:48:47.551Z,2.97
2023-03-27T07:51:15.301Z,2.60
2023-03-27T07:53:43.434Z,3.80
2023-03-27T07:56:11.712Z,2.87
2023-03-27T07:58:39.705Z,3.40
2023-03-27T08:01:07.788Z,3.43
2023-03-27T08:03:38.664Z,2.80
2023-03-27T08:06:07.368Z,4.37
2023-03-27T08:08:35.404Z,3.30
2023-03-27T08:11:04.627Z,4.30
2023-03-27T08:13:32.595Z,7.83
2023-03-27T08:16:05.416Z,4.67
2023-03-27T08:18:33.338Z,12.40
2023-03-27T08:21:04.503Z,5.30
2023-03-27T08:23:33.667Z,4.23
2023-03-27T08:26:01.784Z,5.30
2023-03-27T08:28:29.917Z,4.00
2023-03-27T08:31:02.364Z,5.23
2023-03-27T08:33:31.108Z,3.93
2023-03-27T08:35:59.013Z,5.00
2023-03-27T08:38:32.996Z,4.30
2023-03-27T08:41:01.702Z,3.70
2023-03-27T08:43:34.768Z,3.70
2023-03-27T08:46:06.103Z,4.57
2023-03-27T08:48:38.278Z,3.70
2023-03-27T08:51:10.363Z,6.60
2023-03-27T08:53:44.612Z,9.77
2023-03-27T08:56:14.954Z,6.60
2023-03-27T08:58:43.273Z,11.70
2023-03-27T09:01:18.407Z,7.70
2023-03-27T09:03:52.526Z,15.13
2023-03-27T09:06:27.656Z,9.57
2023-03-27T09:09:04.841Z,7.20
2023-03-27T09:11:42.613Z,8.30
2023-03-27T09:14:19.454Z,8.87
2023-03-27T09:16:50.977Z,7.30
2023-03-27T09:19:31.836Z,7.27
2023-03-27T09:22:05.631Z,8.10
2023-03-27T09:24:37.837Z,5.93
2023-03-27T09:27:17.539Z,6.87
2023-03-27T09:29:46.071Z,10.93
2023-03-27T09:32:16.749Z,7.80
2023-03-27T09:34:44.957Z,8.90
2023-03-27T09:37:17.353Z,9.33
2023-03-27T09:39:51.438Z,5.90
2023-03-27T09:42:24.860Z,6.87
2023-03-27T09:44:56.689Z,13.00
2023-03-27T09:47:31.666Z,6.70
2023-03-27T09:50:12.571Z,8.63
2023-03-27T09:52:41.759Z,3.83
2023-03-27T09:55:25.266Z,6.03
2023-03-27T09:57:58.815Z,5.83
2023-03-27T10:00:30.745Z,11.03
2023-03-27T10:03:05.721Z,7.67
2023-03-27T10:05:34.030Z,10.23
2023-03-27T10:08:02.942Z,6.70
2023-03-27T10:10:37.707Z,8.13
2023-03-27T10:13:11.729Z,6.40
2023-03-27T10:15:41.269Z,6.30
2023-03-27T10:18:23.898Z,8.20
2023-03-27T10:20:52.663Z,8.60
2023-03-27T10:23:26.315Z,6.57
2023-03-27T10:26:01.394Z,9.87
2023-03-27T10:28:30.892Z,6.80
2023-03-27T10:31:00.657Z,13.10
2023-03-27T10:33:36.666Z,6.00
2023-03-27T10:36:07.586Z,8.27
2023-03-27T10:38:37.333Z,10.17
2023-03-27T10:41:14.724Z,10.93
2023-03-27T10:43:44.393Z,5.90
2023-03-27T10:46:14.648Z,6.80
2023-03-27T10:48:52.869Z,8.97
2023-03-27T10:51:45.508Z,5.33
2023-03-27T10:54:21.868Z,7.47
2023-03-27T10:57:02.370Z,3.77
2023-03-27T10:59:41.563Z,9.30
2023-03-27T11:02:17.370Z,5.27
2023-03-27T11:04:52.545Z,8.13
2023-03-27T11:07:26.639Z,6.03
2023-03-27T11:10:01.754Z,7.40
2023-03-27T11:12:33.544Z,3.20
2023-03-27T11:15:07.295Z,3.77
2023-03-27T11:17:42.329Z,6.73
2023-03-27T11:20:21.218Z,6.00
2023-03-27T11:22:54.669Z,5.60
2023-03-27T11:25:32.055Z,6.63
2023-03-27T11:28:09.551Z,7.27
2023-03-27T11:30:43.663Z,4.67
2023-03-27T11:33:33.440Z,6.27
2023-03-27T11:36:12.364Z,4.40
2023-03-27T11:38:45.198Z,5.00
2023-03-27T11:41:15.466Z,4.43
2023-03-27T11:43:45.211Z,4.47
2023-03-27T11:46:26.343Z,4.10
2023-03-27T11:49:15.706Z,3.20
2023-03-27T11:51:57.517Z,5.10
2023-03-27T11:54:45.565Z,4.40
2023-03-27T11:57:21.193Z,3.50
2023-03-27T12:00:23.056Z,7.30
2023-03-27T12:03:32.548Z,5.80
2023-03-27T12:06:15.479Z,5.77
2023-03-27T12:09:11.797Z,8.33
2023-03-27T12:11:44.348Z,4.70
2023-03-27T12:14:44.691Z,4.90
2023-03-27T12:17:24.728Z,8.40
2023-03-27T12:20:26.858Z,5.70
2023-03-27T12:23:03.582Z,7.70
2023-03-27T12:25:45.219Z,3.83
2023-03-27T12:28:25.983Z,2.60
2023-03-27T12:31:03.972Z,4.97
2023-03-27T12:33:45.593Z,4.97
2023-03-27T12:36:17.849Z,4.50
2023-03-27T12:38:46.850Z,4.73
2023-03-27T12:41:23.512Z,2.50
2023-03-27T12:43:56.875Z,4.10
2023-03-27T12:46:39.725Z,4.67
2023-03-27T12:49:47.410Z,4.10
2023-03-27T12:52:19.078Z,11.13
2023-03-27T12:55:06.792Z,7.23
2023-03-27T12:57:44.068Z,3.80
2023-03-27T13:00:21.639Z,5.57
2023-03-27T13:03:16.994Z,3.37
2023-03-27T13:06:18.506Z,3.50
2023-03-27T13:09:09.838Z,4.10
2023-03-27T13:11:49.396Z,3.13
2023-03-27T13:15:09.321Z,3.60
2023-03-27T13:17:47.987Z,4.03
2023-03-27T13:20:28.496Z,3.57
2023-03-27T13:23:28.808Z,4.17
2023-03-27T13:26:21.221Z,2.63
2023-03-27T13:28:51.874Z,3.47
2023-03-27T13:31:52.824Z,2.70
2023-03-27T13:34:33.592Z,2.83
2023-03-27T13:37:25.872Z,3.20
2023-03-27T13:40:26.721Z,6.47
2023-03-27T13:43:01.796Z,4.93
2023-03-27T13:45:39.602Z,4.50
2023-03-27T13:48:33.519Z,7.30
2023-03-27T13:51:29.646Z,4.70
2023-03-27T13:54:34.863Z,4.10
2023-03-27T13:57:17.186Z,4.27
2023-03-27T14:00:10.592Z,4.63
2023-03-27T14:03:10.704Z,4.83
2023-03-27T14:06:03.764Z,2.90
2023-03-27T14:08:41.416Z,2.27
2023-03-27T14:11:23.730Z,3.00
2023-03-27T14:14:16.565Z,3.23
2023-03-27T14:17:23.998Z,2.57
2023-03-27T14:20:14.445Z,5.17
2023-03-27T14:22:49.587Z,4.27
2023-03-27T14:25:20.265Z,4.70
2023-03-27T14:27:51.518Z,2.57
2023-03-27T14:30:26.151Z,2.30
2023-03-27T14:32:55.669Z,5.00
2023-03-27T14:35:29.022Z,2.40
2023-03-27T14:38:00.951Z,5.90
2023-03-27T14:40:32.679Z,5.27
2023-03-27T14:43:02.274Z,6.73
2023-03-27T14:45:34.813Z,4.37
2023-03-27T14:48:06.219Z,2.60
2023-03-27T14:50:35.308Z,5.13
2023-03-27T14:53:09.660Z,3.47
2023-03-27T14:55:39.722Z,2.80
2023-03-27T14:58:12.998Z,2.80
2023-03-27T15:00:42.691Z,3.50
2023-03-27T15:03:14.684Z,4.10
2023-03-27T15:06:00.416Z,2.87
2023-03-27T15:08:33.546Z,2.47
2023-03-27T15:11:01.530Z,3.43
2023-03-27T15:13:35.263Z,2.20
2023-03-27T15:16:06.597Z,2.70
2023-03-27T15:18:38.613Z,2.00
2023-03-27T15:21:13.563Z,2.47
2023-03-27T15:23:45.621Z,2.40
2023-03-27T15:26:20.240Z,3.57
2023-03-27T15:28:54.419Z,2.60
2023-03-27T15:31:25.621Z,4.13
2023-03-27T15:34:02.028Z,3.57
2023-03-27T15:36:33.017Z,3.10
2023-03-27T15:39:02.525Z,3.37
2023-03-27T15:41:50.758Z,5.00
2023-03-27T15:44:21.120Z,3.83
2023-03-27T15:46:56.184Z,4.63
2023-03-27T15:49:30.764Z,2.07
2023-03-27T15:52:00.373Z,2.50
2023-03-27T15:54:36.630Z,3.70
2023-03-27T15:57:11.451Z,4.60
2023-03-27T15:59:52.531Z,3.37
2023-03-27T16:02:25.210Z,4.53
2023-03-27T16:04:55.393Z,2.30
2023-03-27T16:07:27.153Z,4.20
2023-03-27T16:09:58.326Z,10.87
2023-03-27T16:12:30.766Z,5.73
2023-03-27T16:15:00.211Z,3.23
2023-03-27T16:17:39.310Z,3.40
2023-03-27T16:20:35.690Z,2.50
2023-03-27T16:23:04.039Z,4.80
2023-03-27T16:25:31.904Z,4.10
2023-03-27T16:27:59.877Z,5.67
2023-03-27T16:30:30.578Z,4.20
2023-03-27T16:33:00.301Z,2.53
2023-03-27T16:35:28.903Z,5.07
2023-03-27T16:37:58.973Z,3.73
2023-03-27T16:40:27.308Z,3.40
2023-03-27T16:42:55.258Z,3.63
2023-03-27T16:45:23.181Z,2.00
2023-03-27T16:47:53.286Z,2.40
2023-03-27T16:50:24.378Z,3.87
2023-03-27T16:52:52.485Z,2.90
2023-03-27T16:55:20.430Z,2.80
2023-03-27T16:57:48.331Z,2.43
2023-03-27T17:00:19.853Z,2.30
2023-03-27T17:02:48.392Z,2.97
2023-03-27T17:05:19.278Z,2.93
2023-03-27T17:07:48.538Z,2.73
2023-03-27T17:10:16.821Z,5.00
2023-03-27T17:12:44.735Z,3.10
2023-03-27T17:15:12.741Z,4.57
2023-03-27T17:17:40.549Z,3.80
2023-03-27T17:20:09.814Z,2.50
2023-03-27T17:22:37.729Z,3.27
2023-03-27T17:25:09.913Z,2.83
2023-03-27T17:27:38.109Z,5.47
2023-03-27T17:30:07.184Z,4.67
2023-03-27T17:32:35.063Z,4.97
2023-03-27T17:35:04.366Z,7.10
2023-03-27T17:37:32.230Z,4.93
2023-03-27T17:40:00.624Z,3.23
2023-03-27T17:42:29.791Z,5.03
2023-03-27T17:44:57.668Z,3.10
2023-03-27T17:47:26.007Z,3.47
2023-03-27T17:49:54.537Z,4.63
2023-03-27T17:52:23.340Z,2.67
2023-03-27T17:54:51.348Z,3.50
2023-03-27T17:57:19.154Z,2.10
2023-03-27T17:59:48.511Z,2.93
2023-03-27T18:02:18.589Z,3.00
2023-03-27T18:04:52.127Z,2.30
2023-03-27T18:07:21.020Z,2.40
2023-03-27T18:09:49.030Z,5.27
2023-03-27T18:12:17.772Z,3.20
2023-03-27T18:14:45.586Z,5.10
2023-03-27T18:17:15.738Z,5.57
2023-03-27T18:19:43.663Z,4.40
2023-03-27T18:22:11.446Z,2.67
2023-03-27T18:24:39.396Z,4.33
2023-03-27T18:27:07.532Z,3.77
2023-03-27T18:29:35.356Z,6.87
2023-03-27T18:32:04.209Z,4.27
2023-03-27T18:34:33.346Z,3.43
2023-03-27T18:37:03.857Z,3.47
2023-03-27T18:39:34.916Z,4.60
2023-03-27T18:42:04.012Z,4.77
2023-03-27T18:44:31.900Z,3.57
2023-03-27T18:47:00.199Z,2.53
2023-03-27T18:49:28.040Z,2.90
2023-03-27T18:51:57.137Z,4.33
2023-03-27T18:54:25.227Z,5.47
2023-03-27T18:56:53.028Z,4.37
2023-03-27T18:59:20.827Z,3.50
2023-03-27T19:01:48.751Z,3.67
2023-03-27T19:04:17.348Z,6.20
2023-03-27T19:06:46.167Z,2.90
2023-03-27T19:09:15.578Z,3.00
2023-03-27T19:11:43.832Z,7.00
2023-03-27T19:14:12.087Z,4.20
2023-03-27T19:16:39.993Z,5.27
2023-03-27T19:19:07.826Z,5.37
2023-03-27T19:21:35.676Z,3.00
2023-03-27T19:24:03.494Z,4.67
2023-03-27T19:26:35.098Z,3.83
2023-03-27T19:29:02.919Z,3.10
2023-03-27T19:31:31.149Z,4.53
2023-03-27T19:33:58.946Z,2.97
2023-03-27T19:36:27.153Z,4.30
2023-03-27T19:38:55.323Z,2.70
2023-03-27T19:41:23.513Z,2.87
2023-03-27T19:43:58.888Z,3.10
2023-03-27T19:46:29.071Z,3.07
2023-03-27T19:48:57.190Z,2.80
2023-03-27T19:51:25.102Z,5.70
2023-03-27T19:53:52.954Z,2.57
2023-03-27T19:56:20.763Z,4.17
2023-03-27T19:58:48.564Z,3.27
2023-03-27T20:01:20.057Z,2.63
2023-03-27T20:03:48.018Z,7.90
2023-03-27T20:06:19.365Z,2.70
2023-03-27T20:08:47.331Z,3.80
2023-03-27T20:11:15.143Z,3.57
2023-03-27T20:13:55.463Z,2.47
2023-03-27T20:16:28.191Z,3.17
2023-03-27T20:19:03.136Z,4.83
2023-03-27T20:21:32.604Z,3.90
2023-03-27T20:24:00.492Z,4.47
2023-03-27T20:26:29.782Z,4.40
2023-03-27T20:28:57.787Z,4.10
2023-03-27T20:31:27.196Z,3.40
2023-03-27T20:33:55.135Z,2.90
2023-03-27T20:36:23.649Z,3.77
2023-03-27T20:38:52.683Z,4.13
2023-03-27T20:41:21.744Z,5.10
2023-03-27T20:43:51.061Z,4.17
2023-03-27T20:46:18.875Z,3.23
2023-03-27T20:48:54.140Z,3.60
2023-03-27T20:51:24.225Z,4.50
2023-03-27T20:53:55.868Z,3.00
2023-03-27T20:56:25.078Z,3.30
2023-03-27T20:58:53.040Z,2.60
2023-03-27T21:01:27.026Z,3.77
2023-03-27T21:03:58.194Z,5.90
2023-03-27T21:06:26.355Z,3.90
2023-03-27T21:08:54.160Z,3.97
2023-03-27T21:11:21.957Z,3.20
2023-03-27T21:13:50.592Z,6.77
2023-03-27T21:16:18.455Z,8.33
2023-03-27T21:18:46.246Z,3.80
2023-03-27T21:21:15.696Z,4.43
2023-03-27T21:23:43.509Z,4.43
2023-03-27T21:26:11.415Z,9.17
2023-03-27T21:28:39.220Z,4.00
2023-03-27T21:31:07.881Z,3.73
2023-03-27T21:33:36.034Z,4.60
2023-03-27T21:36:04.543Z,7.60
2023-03-27T21:38:33.869Z,4.70
2023-03-27T21:41:02.875Z,8.20
2023-03-27T21:43:30.737Z,4.20
2023-03-27T21:46:00.203Z,4.37
2023-03-27T21:48:28.456Z,4.97
2023-03-27T21:51:00.162Z,4.03
2023-03-27T21:53:28.021Z,3.23
2023-03-27T21:55:57.650Z,4.90
2023-03-27T21:58:26.137Z,3.03
2023-03-27T22:00:57.112Z,7.20
2023-03-27T22:03:25.536Z,4.70
2023-03-27T22:06:01.420Z,3.67
2023-03-27T22:08:39.318Z,4.03
2023-03-27T22:11:08.901Z,7.43
2023-03-27T22:13:37.145Z,5.60
2023-03-27T22:16:09.387Z,4.67
2023-03-27T22:18:37.230Z,5.03
2023-03-27T22:21:17.074Z,4.70
2023-03-27T22:23:45.519Z,4.50
2023-03-27T22:26:17.672Z,4.63
2023-03-27T22:28:45.622Z,9.00
2023-03-27T22:31:13.512Z,4.13
2023-03-27T22:33:41.400Z,6.20
2023-03-27T22:36:12.105Z,5.43
2023-03-27T22:38:41.077Z,6.47
2023-03-27T22:41:10.606Z,3.97
2023-03-27T22:43:40.260Z,2.60
2023-03-27T22:46:10.320Z,3.47
2023-03-27T22:48:38.395Z,3.90
2023-03-27T22:51:07.173Z,3.63
2023-03-27T22:53:35.323Z,3.40
2023-03-27T22:56:03.933Z,4.57
2023-03-27T23:01:15.484Z,4.87
2023-03-27T23:03:43.453Z,5.27
2023-03-27T23:06:17.997Z,4.90
2023-03-27T23:08:46.135Z,3.20
2023-03-27T23:11:14.803Z,4.77
2023-03-27T23:13:43.035Z,5.30
2023-03-27T23:16:12.029Z,4.00
2023-03-27T23:18:41.404Z,4.87
2023-03-27T23:21:11.245Z,4.37
2023-03-27T23:23:40.272Z,3.63
2023-03-27T23:26:09.261Z,3.80
2023-03-27T23:28:39.370Z,6.20
2023-03-27T23:31:08.977Z,4.07
2023-03-27T23:33:38.576Z,4.00
2023-03-27T23:36:10.186Z,3.20
2023-03-27T23:38:38.343Z,3.40
2023-03-27T23:41:07.428Z,4.20
2023-03-27T23:43:36.574Z,4.23
2023-03-27T23:46:08.366Z,3.57
2023-03-27T23:48:36.335Z,5.50
2023-03-27T23:51:04.387Z,5.57
2023-03-27T23:53:33.700Z,5.00
2023-03-27T23:56:01.901Z,5.13
2023-03-27T23:58:32.378Z,4.23
